createdAt,value
2022-10-15T00:01:08.181Z,69.57
2022-10-15T00:03:40.538Z,85.10
2022-10-15T00:06:10.261Z,73.47
2022-10-15T00:08:40.292Z,69.20
2022-10-15T00:11:10.365Z,67.65
2022-10-15T00:13:39.070Z,79.85
2022-10-15T00:16:09.281Z,71.63
2022-10-15T00:18:37.389Z,63.03
2022-10-15T00:21:08.432Z,64.32
2022-10-15T00:23:37.344Z,64.15
2022-10-15T00:26:08.565Z,59.00
2022-10-15T00:28:37.342Z,54.15
2022-10-15T00:31:07.343Z,53.33
2022-10-15T00:33:35.955Z,57.72
2022-10-15T00:36:07.225Z,53.28
2022-10-15T00:38:36.154Z,51.03
2022-10-15T00:41:05.382Z,60.17
2022-10-15T00:43:43.392Z,52.35
2022-10-15T00:46:20.298Z,53.78
2022-10-15T00:48:51.353Z,53.20
2022-10-15T00:51:20.640Z,52.08
2022-10-15T00:53:49.821Z,53.70
2022-10-15T00:56:21.207Z,46.90
2022-10-15T00:58:52.737Z,53.92
2022-10-15T01:01:21.115Z,60.55
2022-10-15T01:03:49.231Z,48.47
2022-10-15T01:06:17.221Z,61.97
2022-10-15T01:08:46.003Z,50.30
2022-10-15T01:11:30.029Z,52.30
2022-10-15T01:14:08.303Z,51.65
2022-10-15T01:16:45.031Z,49.28
2022-10-15T01:19:29.425Z,51.25
2022-10-15T01:22:05.422Z,81.53
2022-10-15T01:25:01.345Z,51.55
2022-10-15T01:27:33.578Z,49.97
2022-10-15T01:30:24.484Z,56.15
2022-10-15T01:33:15.976Z,51.17
2022-10-15T01:35:50.150Z,49.60
2022-10-15T01:38:28.527Z,49.63
2022-10-15T01:41:00.550Z,45.95
2022-10-15T01:43:33.674Z,45.28
2022-10-15T01:46:07.428Z,41.63
2022-10-15T01:48:37.649Z,50.33
2022-10-15T01:51:08.527Z,58.50
2022-10-15T01:53:37.824Z,50.88
2022-10-15T01:56:10.110Z,45.17
2022-10-15T01:58:42.020Z,47.83
2022-10-15T02:01:11.444Z,49.60
2022-10-15T02:03:51.058Z,46.88
2022-10-15T02:06:25.633Z,39.88
2022-10-15T02:09:07.999Z,44.20
2022-10-15T02:11:48.906Z,40.90
2022-10-15T02:14:25.728Z,40.17
2022-10-15T02:16:59.846Z,40.42
2022-10-15T02:19:39.264Z,44.17
2022-10-15T02:22:12.909Z,37.28
2022-10-15T02:24:45.208Z,39.63
2022-10-15T02:27:17.043Z,33.83
2022-10-15T02:29:47.997Z,39.83
2022-10-15T02:32:20.249Z,36.92
2022-10-15T02:34:50.266Z,36.22
2022-10-15T02:37:22.022Z,40.85
2022-10-15T02:39:50.183Z,37.58
2022-10-15T02:42:19.534Z,39.13
2022-10-15T02:44:47.308Z,44.50
2022-10-15T02:47:16.978Z,45.88
2022-10-15T02:49:44.929Z,40.22
2022-10-15T02:52:12.639Z,43.88
2022-10-15T02:54:40.816Z,41.15
2022-10-15T02:57:08.763Z,37.13
2022-10-15T02:59:36.552Z,39.50
2022-10-15T03:02:04.663Z,40.08
2022-10-15T03:04:33.926Z,46.63
2022-10-15T03:07:01.725Z,47.55
2022-10-15T03:09:29.777Z,40.88
2022-10-15T03:11:57.523Z,42.35
2022-10-15T03:14:25.346Z,41.75
2022-10-15T03:16:53.493Z,39.38
2022-10-15T03:19:21.509Z,39.47
2022-10-15T03:21:50.604Z,44.38
2022-10-15T03:24:18.738Z,46.08
2022-10-15T03:26:46.441Z,40.28
2022-10-15T03:29:14.333Z,37.35
2022-10-15T03:31:42.405Z,42.10
2022-10-15T03:34:10.094Z,41.08
2022-10-15T03:36:37.853Z,39.10
2022-10-15T03:39:08.288Z,40.30
2022-10-15T03:41:36.046Z,33.85
2022-10-15T03:44:04.914Z,34.80
2022-10-15T03:46:33.147Z,37.00
2022-10-15T03:49:01.436Z,40.20
2022-10-15T03:51:31.667Z,39.33
2022-10-15T03:54:00.114Z,37.03
2022-10-15T03:56:29.169Z,31.30
2022-10-15T03:58:56.911Z,36.35
2022-10-15T04:01:25.066Z,34.95
2022-10-15T04:03:53.896Z,35.97
2022-10-15T04:06:22.071Z,37.15
2022-10-15T04:11:23.102Z,32.45
2022-10-15T04:13:52.867Z,35.53
2022-10-15T04:16:20.608Z,31.55
2022-10-15T04:18:48.351Z,33.45
2022-10-15T04:21:16.380Z,37.13
2022-10-15T04:23:44.145Z,33.97
2022-10-15T04:26:11.873Z,31.48
2022-10-15T04:28:40.006Z,31.23
2022-10-15T04:31:09.684Z,34.92
2022-10-15T04:33:37.389Z,40.63
2022-10-15T04:36:08.058Z,37.17
2022-10-15T04:38:36.110Z,34.67
2022-10-15T04:41:06.595Z,36.72
2022-10-15T04:43:35.277Z,34.33
2022-10-15T04:46:05.923Z,36.22
2022-10-15T04:48:38.913Z,37.38
2022-10-15T04:51:13.046Z,34.33
2022-10-15T04:53:41.275Z,38.75
2022-10-15T04:56:12.537Z,38.13
2022-10-15T04:58:40.674Z,36.67
2022-10-15T05:01:12.035Z,37.60
2022-10-15T05:03:45.021Z,35.40
2022-10-15T05:06:15.492Z,38.72
2022-10-15T05:08:44.308Z,39.25
2022-10-15T05:11:14.206Z,39.60
2022-10-15T05:13:43.754Z,38.83
2022-10-15T05:16:13.806Z,42.35
2022-10-15T05:18:44.649Z,44.83
2022-10-15T05:21:13.452Z,34.53
2022-10-15T05:23:41.817Z,36.60
2022-10-15T05:26:12.959Z,31.60
2022-10-15T05:28:41.053Z,34.90
2022-10-15T05:31:14.756Z,38.95
2022-10-15T05:33:47.128Z,37.05
2022-10-15T05:36:17.452Z,30.77
2022-10-15T05:38:45.326Z,35.13
2022-10-15T05:41:13.253Z,33.83
2022-10-15T05:43:41.579Z,32.00
2022-10-15T05:46:10.101Z,34.25
2022-10-15T05:48:38.007Z,33.53
2022-10-15T05:51:08.969Z,32.58
2022-10-15T05:53:37.026Z,31.38
2022-10-15T05:56:05.945Z,32.53
2022-10-15T05:58:37.341Z,30.30
2022-10-15T06:01:08.181Z,31.95
2022-10-15T06:03:36.683Z,31.25
2022-10-15T06:06:04.937Z,40.92
2022-10-15T06:08:33.963Z,30.17
2022-10-15T06:11:09.256Z,25.88
2022-10-15T06:13:39.490Z,25.00
2022-10-15T06:16:07.751Z,32.25
2022-10-15T06:18:36.139Z,29.85
2022-10-15T06:21:08.892Z,29.15
2022-10-15T06:23:38.595Z,30.17
2022-10-15T06:26:08.081Z,27.38
2022-10-15T06:28:37.177Z,30.08
2022-10-15T06:31:06.950Z,25.70
2022-10-15T06:33:36.513Z,31.58
2022-10-15T06:36:06.543Z,26.35
2022-10-15T06:38:34.885Z,24.58
2022-10-15T06:41:06.691Z,24.85
2022-10-15T06:43:38.309Z,25.60
2022-10-15T06:46:07.305Z,27.63
2022-10-15T06:48:35.222Z,30.85
2022-10-15T06:51:03.846Z,29.80
2022-10-15T06:53:32.800Z,25.35
2022-10-15T06:56:01.910Z,29.30
2022-10-15T06:58:31.156Z,25.73
2022-10-15T07:01:02.785Z,32.60
2022-10-15T07:03:30.633Z,25.52
2022-10-15T07:06:02.927Z,27.73
2022-10-15T07:08:31.130Z,29.02
2022-10-15T07:10:58.861Z,26.00
2022-10-15T07:13:26.568Z,28.85
2022-10-15T07:15:56.050Z,29.70
2022-10-15T07:18:24.032Z,27.85
2022-10-15T07:20:51.870Z,26.80
2022-10-15T07:23:22.916Z,29.05
2022-10-15T07:25:53.365Z,26.67
2022-10-15T07:28:21.463Z,26.20
2022-10-15T07:30:49.361Z,28.73
2022-10-15T07:33:18.561Z,29.17
2022-10-15T07:35:46.686Z,27.88
2022-10-15T07:38:14.369Z,28.17
2022-10-15T07:40:42.162Z,24.98
2022-10-15T07:43:10.208Z,25.33
2022-10-15T07:45:38.086Z,27.02
2022-10-15T07:48:06.701Z,25.00
2022-10-15T07:50:37.253Z,22.55
2022-10-15T07:53:07.111Z,25.00
2022-10-15T07:55:35.147Z,25.70
2022-10-15T07:58:05.655Z,24.80
2022-10-15T08:03:06.689Z,21.63
2022-10-15T08:05:35.850Z,22.83
2022-10-15T08:08:04.360Z,23.20
2022-10-15T08:10:32.372Z,24.92
2022-10-15T08:13:00.213Z,24.00
2022-10-15T08:15:28.096Z,27.63
2022-10-15T08:17:55.890Z,29.98
2022-10-15T08:20:23.762Z,31.15
2022-10-15T08:22:52.805Z,30.05
2022-10-15T08:25:20.879Z,33.88
2022-10-15T08:27:48.664Z,26.50
2022-10-15T08:30:16.722Z,29.90
2022-10-15T08:32:44.617Z,33.53
2022-10-15T08:35:12.444Z,34.90
2022-10-15T08:37:40.305Z,48.75
2022-10-15T08:40:13.803Z,36.72
2022-10-15T08:42:44.209Z,24.70
2022-10-15T08:45:23.112Z,31.50
2022-10-15T08:47:54.259Z,30.83
2022-10-15T08:50:28.930Z,25.27
2022-10-15T08:53:00.089Z,28.90
2022-10-15T08:55:35.570Z,24.60
2022-10-15T08:58:13.864Z,33.35
2022-10-15T09:00:46.543Z,26.67
2022-10-15T09:03:26.192Z,28.20
2022-10-15T09:06:00.415Z,26.10
2022-10-15T09:08:31.986Z,28.90
2022-10-15T09:11:10.324Z,27.42
2022-10-15T09:13:41.435Z,24.33
2022-10-15T09:16:16.333Z,25.77
2022-10-15T09:18:48.112Z,26.58
2022-10-15T09:21:17.981Z,20.33
2022-10-15T09:23:46.467Z,18.75
2022-10-15T09:26:26.265Z,22.10
2022-10-15T09:29:04.187Z,14.65
2022-10-15T09:31:39.258Z,13.80
2022-10-15T09:34:15.937Z,14.32
2022-10-15T09:36:49.260Z,13.95
2022-10-15T09:39:38.084Z,12.45
2022-10-15T09:42:18.265Z,13.07
2022-10-15T09:44:48.339Z,13.55
2022-10-15T09:47:18.727Z,14.05
2022-10-15T09:49:46.682Z,14.60
2022-10-15T09:52:21.563Z,13.30
2022-10-15T09:55:00.797Z,13.85
2022-10-15T09:57:33.341Z,13.63
2022-10-15T10:00:04.526Z,12.43
2022-10-15T10:02:32.376Z,12.52
2022-10-15T10:05:20.056Z,12.82
2022-10-15T10:07:48.000Z,18.15
2022-10-15T10:10:25.708Z,12.10
2022-10-15T10:12:56.788Z,12.40
2022-10-15T10:15:34.204Z,13.13
2022-10-15T10:18:05.404Z,13.48
2022-10-15T10:20:34.800Z,15.40
2022-10-15T10:23:05.134Z,12.63
2022-10-15T10:25:43.336Z,13.77
2022-10-15T10:28:26.058Z,12.13
2022-10-15T10:31:03.469Z,13.25
2022-10-15T10:33:35.785Z,12.02
2022-10-15T10:36:05.892Z,12.50
2022-10-15T10:38:35.660Z,18.92
2022-10-15T10:41:07.719Z,11.32
2022-10-15T10:46:19.324Z,11.32
2022-10-15T10:48:49.175Z,14.52
2022-10-15T10:51:19.747Z,12.48
2022-10-15T10:53:53.765Z,10.18
2022-10-15T10:56:25.554Z,10.95
2022-10-15T10:58:58.860Z,10.20
2022-10-15T11:01:28.181Z,18.80
2022-10-15T11:03:55.970Z,11.15
2022-10-15T11:06:42.554Z,13.90
2022-10-15T11:09:26.431Z,15.40
2022-10-15T11:12:06.669Z,10.45
2022-10-15T11:14:48.115Z,14.15
2022-10-15T11:17:26.582Z,10.93
2022-10-15T11:23:01.810Z,14.27
2022-10-15T11:25:40.457Z,11.85
2022-10-15T11:28:26.472Z,10.50
2022-10-15T11:31:05.362Z,9.43
2022-10-15T11:33:47.564Z,10.25
2022-10-15T11:39:01.030Z,11.80
2022-10-15T11:41:38.768Z,20.90
2022-10-15T11:44:34.796Z,10.88
2022-10-15T11:47:19.044Z,13.10
2022-10-15T11:49:59.168Z,10.70
2022-10-15T11:52:41.109Z,11.50
2022-10-15T11:55:15.059Z,9.93
2022-10-15T11:57:45.554Z,9.48
2022-10-15T12:00:27.172Z,10.05
2022-10-15T12:03:01.228Z,10.70
2022-10-15T12:05:34.908Z,10.65
2022-10-15T12:11:05.635Z,9.05
2022-10-15T12:13:40.109Z,10.07
2022-10-15T12:16:17.375Z,13.93
2022-10-15T12:18:53.554Z,15.25
2022-10-15T12:21:35.499Z,13.18
2022-10-15T12:24:07.058Z,13.15
2022-10-15T12:26:36.152Z,10.87
2022-10-15T12:29:06.958Z,13.25
2022-10-15T12:31:46.996Z,9.77
2022-10-15T12:34:33.613Z,13.25
2022-10-15T12:37:04.591Z,13.05
2022-10-15T12:39:48.061Z,10.32
2022-10-15T12:42:26.698Z,10.10
2022-10-15T12:44:55.813Z,12.20
2022-10-15T12:47:49.920Z,11.27
2022-10-15T12:50:21.650Z,10.10
2022-10-15T12:52:56.338Z,17.15
2022-10-15T12:55:30.413Z,12.60
2022-10-15T12:58:04.195Z,11.60
2022-10-15T13:00:40.271Z,13.00
2022-10-15T13:03:20.253Z,11.75
2022-10-15T13:05:53.086Z,12.98
2022-10-15T13:08:25.510Z,14.70
2022-10-15T13:10:55.922Z,18.27
2022-10-15T13:13:26.212Z,15.07
2022-10-15T13:15:59.101Z,17.50
2022-10-15T13:18:29.866Z,19.42
2022-10-15T13:20:59.217Z,19.10
2022-10-15T13:23:32.578Z,21.13
2022-10-15T13:26:17.959Z,14.32
2022-10-15T13:28:47.261Z,12.57
2022-10-15T13:31:27.449Z,12.60
2022-10-15T13:34:02.312Z,11.82
2022-10-15T13:36:34.560Z,16.80
2022-10-15T13:39:06.342Z,14.35
2022-10-15T13:44:04.128Z,19.17
2022-10-15T13:46:34.101Z,11.70
2022-10-15T13:49:04.075Z,15.40
2022-10-15T13:51:40.397Z,14.70
2022-10-15T13:54:11.681Z,20.00
2022-10-15T13:56:47.910Z,17.70
2022-10-15T13:59:20.082Z,22.42
2022-10-15T14:01:49.568Z,21.30
2022-10-15T14:04:19.973Z,28.52
2022-10-15T14:09:33.916Z,28.05
2022-10-15T14:12:03.602Z,33.10
2022-10-15T14:14:34.585Z,24.38
2022-10-15T14:17:05.245Z,29.02
2022-10-15T14:19:35.957Z,25.77
2022-10-15T14:22:05.758Z,21.58
2022-10-15T14:24:36.080Z,23.23
2022-10-15T14:27:09.578Z,20.08
2022-10-15T14:29:40.827Z,17.17
2022-10-15T14:32:23.214Z,18.27
2022-10-15T14:34:52.818Z,15.77
2022-10-15T14:37:40.094Z,21.42
2022-10-15T14:40:18.708Z,17.55
2022-10-15T14:42:48.885Z,16.13
2022-10-15T14:45:24.834Z,13.55
2022-10-15T14:47:55.401Z,14.70
2022-10-15T14:50:26.431Z,18.42
2022-10-15T14:52:56.278Z,15.82
2022-10-15T14:55:33.051Z,21.73
2022-10-15T14:58:03.312Z,37.25
2022-10-15T15:00:34.156Z,28.70
2022-10-15T15:03:05.408Z,26.58
2022-10-15T15:05:45.424Z,27.00
2022-10-15T15:08:15.136Z,24.08
2022-10-15T15:10:44.510Z,16.65
2022-10-15T15:13:16.563Z,23.55
2022-10-15T15:18:12.652Z,44.13
2022-10-15T15:20:43.301Z,25.27
2022-10-15T15:23:15.966Z,20.30
2022-10-15T15:25:43.865Z,17.50
2022-10-15T15:28:14.405Z,18.17
2022-10-15T15:30:45.005Z,16.63
2022-10-15T15:33:14.746Z,19.67
2022-10-15T15:35:50.734Z,17.67
2022-10-15T15:38:21.566Z,24.35
2022-10-15T15:40:50.317Z,16.08
2022-10-15T15:43:19.640Z,24.58
2022-10-15T15:45:48.337Z,23.67
2022-10-15T15:48:16.965Z,18.38
2022-10-15T15:50:44.881Z,20.55
2022-10-15T15:53:13.278Z,15.57
2022-10-15T15:55:42.497Z,22.58
2022-10-15T15:58:10.229Z,19.98
2022-10-15T16:00:38.344Z,24.02
2022-10-15T16:03:06.070Z,17.83
2022-10-15T16:05:33.929Z,31.23
2022-10-15T16:08:01.911Z,46.28
2022-10-15T16:10:29.885Z,130.32
2022-10-15T16:12:58.966Z,332.52
2022-10-15T16:15:26.953Z,572.15
2022-10-15T16:17:54.955Z,191.77
2022-10-15T16:20:23.455Z,136.18
2022-10-15T16:22:51.612Z,106.63
2022-10-15T16:25:20.080Z,122.03
2022-10-15T16:27:48.805Z,129.85
2022-10-15T16:30:19.340Z,188.63
2022-10-15T16:32:47.168Z,118.10
2022-10-15T16:35:15.155Z,116.78
2022-10-15T16:37:43.114Z,91.00
2022-10-15T16:40:12.057Z,55.83
2022-10-15T16:42:39.773Z,48.13
2022-10-15T16:45:08.926Z,57.60
2022-10-15T16:47:38.060Z,52.72
2022-10-15T16:50:06.892Z,55.92
2022-10-15T16:52:35.361Z,78.47
2022-10-15T16:55:03.833Z,93.40
2022-10-15T16:57:31.601Z,80.70
2022-10-15T17:00:00.648Z,79.43
2022-10-15T17:02:28.633Z,60.50
2022-10-15T17:04:57.990Z,57.78
2022-10-15T17:07:26.494Z,44.75
2022-10-15T17:09:54.701Z,55.28
2022-10-15T17:12:22.917Z,50.47
2022-10-15T17:14:52.160Z,45.25
2022-10-15T17:17:20.127Z,39.75
2022-10-15T17:19:48.052Z,40.80
2022-10-15T17:22:17.465Z,44.10
2022-10-15T17:24:45.377Z,39.22
2022-10-15T17:27:13.359Z,36.40
2022-10-15T17:29:41.568Z,34.92
2022-10-15T17:32:09.287Z,32.88
2022-10-15T17:34:37.416Z,56.63
2022-10-15T17:37:05.223Z,80.78
2022-10-15T17:39:34.785Z,57.55
2022-10-15T17:42:02.657Z,35.92
2022-10-15T17:44:30.790Z,36.97
2022-10-15T17:46:58.535Z,37.40
2022-10-15T17:49:26.545Z,37.10
2022-10-15T17:51:54.518Z,40.28
2022-10-15T17:54:22.419Z,45.85
2022-10-15T17:56:51.573Z,33.95
2022-10-15T17:59:19.646Z,37.47
2022-10-15T18:02:02.990Z,148.10
2022-10-15T18:04:31.374Z,21.83
2022-10-15T18:06:59.408Z,22.17
2022-10-15T18:09:27.996Z,25.85
2022-10-15T18:11:57.638Z,124.00
2022-10-15T18:14:25.523Z,21.48
2022-10-15T18:16:53.257Z,24.33
2022-10-15T18:19:22.036Z,133.23
2022-10-15T18:21:50.147Z,79.90
2022-10-15T18:24:21.087Z,26.48
2022-10-15T18:26:49.216Z,31.38
2022-10-15T18:29:18.634Z,34.38
2022-10-15T18:31:46.929Z,40.42
2022-10-15T18:34:15.219Z,31.30
2022-10-15T18:36:43.658Z,25.08
2022-10-15T18:39:11.967Z,22.42
2022-10-15T18:41:40.999Z,20.55
2022-10-15T18:44:13.492Z,21.58
2022-10-15T18:46:44.952Z,20.67
2022-10-15T18:49:14.836Z,27.92
2022-10-15T18:51:43.310Z,18.10
2022-10-15T18:54:11.374Z,23.00
2022-10-15T18:56:39.286Z,22.52
2022-10-15T18:59:07.258Z,21.50
2022-10-15T19:01:37.090Z,19.55
2022-10-15T19:04:08.020Z,17.27
2022-10-15T19:06:38.705Z,13.73
2022-10-15T19:09:09.211Z,18.30
2022-10-15T19:11:38.414Z,179.77
2022-10-15T19:14:06.545Z,84.60
2022-10-15T19:16:35.231Z,36.85
2022-10-15T19:19:06.330Z,29.73
2022-10-15T19:21:34.183Z,30.80
2022-10-15T19:24:02.358Z,22.52
2022-10-15T19:26:30.659Z,19.75
2022-10-15T19:28:58.890Z,19.85
2022-10-15T19:31:28.336Z,16.50
2022-10-15T19:33:57.896Z,17.95
2022-10-15T19:36:28.949Z,22.38
2022-10-15T19:38:57.013Z,19.87
2022-10-15T19:41:24.845Z,21.85
2022-10-15T19:43:52.948Z,30.40
2022-10-15T19:46:20.723Z,28.42
2022-10-15T19:48:49.115Z,23.95
2022-10-15T19:51:16.849Z,20.08
2022-10-15T19:53:46.063Z,20.95
2022-10-15T19:56:14.418Z,26.45
2022-10-15T19:58:42.373Z,22.88
2022-10-15T20:01:11.262Z,25.52
2022-10-15T20:03:39.835Z,28.20
2022-10-15T20:06:08.565Z,27.58
2022-10-15T20:08:36.745Z,19.80
2022-10-15T20:11:08.015Z,17.80
2022-10-15T20:13:37.084Z,23.38
2022-10-15T20:16:07.299Z,25.85
2022-10-15T20:18:36.175Z,19.88
2022-10-15T20:21:08.550Z,18.50
2022-10-15T20:23:37.794Z,26.00
2022-10-15T20:26:08.564Z,21.10
2022-10-15T20:28:37.542Z,29.10
2022-10-15T20:31:07.474Z,25.50
2022-10-15T20:33:36.041Z,27.83
2022-10-15T20:36:05.234Z,45.00
2022-10-15T20:38:34.049Z,31.30
2022-10-15T20:41:08.654Z,33.17
2022-10-15T20:43:36.760Z,33.75
2022-10-15T20:46:07.446Z,39.53
2022-10-15T20:48:36.145Z,33.47
2022-10-15T20:51:05.006Z,28.58
2022-10-15T20:53:33.270Z,32.38
2022-10-15T20:56:01.402Z,35.28
2022-10-15T20:58:31.369Z,28.75
2022-10-15T21:00:59.601Z,29.02
2022-10-15T21:03:29.800Z,50.75
2022-10-15T21:05:57.770Z,51.85
2022-10-15T21:08:27.172Z,36.08
2022-10-15T21:11:01.513Z,42.83
2022-10-15T21:13:31.339Z,37.40
2022-10-15T21:16:00.164Z,37.08
2022-10-15T21:18:28.620Z,44.30
2022-10-15T21:21:03.124Z,51.90
2022-10-15T21:23:31.446Z,48.65
2022-10-15T21:26:05.041Z,44.42
2022-10-15T21:28:34.747Z,47.15
2022-10-15T21:31:05.485Z,44.05
2022-10-15T21:33:33.516Z,37.60
2022-10-15T21:36:10.656Z,41.55
2022-10-15T21:38:38.674Z,36.42
2022-10-15T21:41:06.777Z,36.17
2022-10-15T21:43:36.534Z,36.50
2022-10-15T21:46:06.110Z,36.17
2022-10-15T21:48:34.262Z,32.53
2022-10-15T21:51:02.078Z,33.83
2022-10-15T21:53:30.205Z,34.78
2022-10-15T21:55:58.297Z,26.38
2022-10-15T21:58:26.290Z,28.15
2022-10-15T22:00:55.515Z,22.50
2022-10-15T22:03:23.483Z,22.52
2022-10-15T22:05:51.396Z,21.73
2022-10-15T22:08:19.463Z,32.85
2022-10-15T22:10:47.294Z,27.52
2022-10-15T22:13:15.362Z,30.00
2022-10-15T22:15:43.242Z,32.50
2022-10-15T22:18:12.898Z,27.42
2022-10-15T22:23:09.616Z,33.60
2022-10-15T22:25:37.612Z,39.80
2022-10-15T22:28:05.761Z,40.22
2022-10-15T22:30:35.495Z,34.53
2022-10-15T22:33:03.458Z,36.25
2022-10-15T22:35:33.946Z,30.40
2022-10-15T22:38:02.273Z,37.08
2022-10-15T22:40:29.955Z,28.50
2022-10-15T22:42:58.193Z,27.10
2022-10-15T22:45:26.105Z,34.85
2022-10-15T22:47:53.981Z,31.58
2022-10-15T22:50:21.640Z,28.83
2022-10-15T22:52:50.921Z,28.77
2022-10-15T22:55:18.639Z,38.50
2022-10-15T22:57:46.836Z,56.47
2022-10-15T23:00:15.902Z,31.42
2022-10-15T23:02:43.757Z,28.17
2022-10-15T23:05:11.490Z,39.65
2022-10-15T23:07:39.709Z,51.42
2022-10-15T23:10:09.759Z,43.20
2022-10-15T23:12:38.499Z,45.05
2022-10-15T23:15:07.440Z,55.60
2022-10-15T23:17:35.490Z,49.92
2022-10-15T23:20:03.226Z,36.28
2022-10-15T23:22:31.261Z,34.90
2022-10-15T23:24:59.385Z,40.85
2022-10-15T23:27:29.154Z,33.55
2022-10-15T23:30:07.615Z,38.53
2022-10-15T23:32:45.508Z,38.05
2022-10-15T23:35:14.912Z,42.28
2022-10-15T23:37:43.118Z,41.97
2022-10-15T23:40:11.754Z,36.42
2022-10-15T23:42:41.139Z,41.88
2022-10-15T23:45:09.304Z,30.55
2022-10-15T23:47:37.234Z,33.95
2022-10-15T23:50:05.744Z,27.10
2022-10-15T23:52:33.674Z,27.63
2022-10-15T23:55:01.431Z,22.92
2022-10-15T23:57:29.512Z,49.95
2022-10-15T23:59:58.841Z,33.13
